createdAt,value
2018-04-22T00:00:10.364Z,6.50
2018-04-22T00:02:39.339Z,6.57
2018-04-22T00:05:08.114Z,7.60
2018-04-22T00:07:36.926Z,8.27
2018-04-22T00:10:05.823Z,8.20
2018-04-22T00:12:34.673Z,8.27
2018-04-22T00:15:03.509Z,9.67
2018-04-22T00:17:34.952Z,7.70
2018-04-22T00:20:03.813Z,5.13
2018-04-22T00:22:32.637Z,5.07
2018-04-22T00:25:02.346Z,4.77
2018-04-22T00:27:31.229Z,4.67
2018-04-22T00:30:00.073Z,4.40
2018-04-22T00:32:28.976Z,4.30
2018-04-22T00:34:57.831Z,5.03
2018-04-22T00:37:26.611Z,4.53
2018-04-22T00:39:57.115Z,4.07
2018-04-22T00:42:25.900Z,6.53
2018-04-22T00:44:55.099Z,5.50
2018-04-22T00:47:24.801Z,5.17
2018-04-22T00:49:53.640Z,5.60
2018-04-22T00:52:22.495Z,5.60
2018-04-22T00:57:25.172Z,5.20
2018-04-22T00:59:54.111Z,5.70
2018-04-22T01:02:23.959Z,5.23
2018-04-22T01:04:53.740Z,5.60
2018-04-22T01:07:23.583Z,4.47
2018-04-22T01:09:52.649Z,4.70
2018-04-22T01:12:22.671Z,4.50
2018-04-22T01:14:52.482Z,4.43
2018-04-22T01:17:24.853Z,4.27
2018-04-22T01:19:53.987Z,4.27
2018-04-22T01:22:22.945Z,4.53
2018-04-22T01:24:52.043Z,3.63
2018-04-22T01:27:21.041Z,3.70
2018-04-22T01:29:50.117Z,4.47
2018-04-22T01:32:19.988Z,4.47
2018-04-22T01:34:49.418Z,4.00
2018-04-22T01:37:18.249Z,3.83
2018-04-22T01:39:48.815Z,4.10
2018-04-22T01:42:17.641Z,3.57
2018-04-22T01:44:46.425Z,4.10
2018-04-22T01:47:18.009Z,4.13
2018-04-22T01:49:47.011Z,3.57
2018-04-22T01:52:16.775Z,4.20
2018-04-22T01:54:45.929Z,3.77
2018-04-22T01:57:15.599Z,4.03
2018-04-22T01:59:45.444Z,3.90
2018-04-22T02:02:15.358Z,4.80
2018-04-22T02:04:44.351Z,4.27
2018-04-22T02:07:13.893Z,4.00
2018-04-22T02:09:42.845Z,4.10
2018-04-22T02:12:12.600Z,4.03
2018-04-22T02:14:42.474Z,3.77
2018-04-22T02:17:11.463Z,4.40
2018-04-22T02:19:41.643Z,4.00
2018-04-22T02:22:10.686Z,3.90
2018-04-22T02:24:40.493Z,3.70
2018-04-22T02:27:09.489Z,4.30
2018-04-22T02:29:38.535Z,4.47
2018-04-22T02:32:08.399Z,4.03
2018-04-22T02:34:37.293Z,4.03
2018-04-22T02:37:06.298Z,3.70
2018-04-22T02:39:35.280Z,4.03
2018-04-22T02:42:04.270Z,3.83
2018-04-22T02:44:33.266Z,3.80
2018-04-22T02:47:02.253Z,4.07
2018-04-22T02:49:31.121Z,3.87
2018-04-22T02:52:06.120Z,3.67
2018-04-22T02:54:35.090Z,3.73
2018-04-22T02:57:04.072Z,3.87
2018-04-22T02:59:34.373Z,3.80
2018-04-22T03:02:03.482Z,3.67
2018-04-22T03:04:32.505Z,3.60
2018-04-22T03:07:01.475Z,3.80
2018-04-22T03:09:30.375Z,3.40
2018-04-22T03:11:59.389Z,3.57
2018-04-22T03:17:02.050Z,3.73
2018-04-22T03:19:31.162Z,3.97
2018-04-22T03:22:00.257Z,4.00
2018-04-22T03:24:29.251Z,4.17
2018-04-22T03:26:58.187Z,3.60
2018-04-22T03:29:28.017Z,3.90
2018-04-22T03:31:56.955Z,3.67
2018-04-22T03:34:25.856Z,3.83
2018-04-22T03:36:55.022Z,3.27
2018-04-22T03:39:24.039Z,3.57
2018-04-22T03:41:53.041Z,3.30
2018-04-22T03:44:28.381Z,3.40
2018-04-22T03:46:57.313Z,3.20
2018-04-22T03:49:26.132Z,2.90
2018-04-22T03:51:54.972Z,3.63
2018-04-22T03:54:23.844Z,2.60
2018-04-22T03:56:52.633Z,3.07
2018-04-22T03:59:22.304Z,3.70
2018-04-22T04:01:51.086Z,3.00
2018-04-22T04:04:19.831Z,4.63
2018-04-22T04:06:49.541Z,6.50
2018-04-22T04:09:18.355Z,6.60
2018-04-22T04:11:47.182Z,7.37
2018-04-22T04:14:16.155Z,6.97
2018-04-22T04:16:45.036Z,7.57
2018-04-22T04:19:25.903Z,7.17
2018-04-22T04:22:06.667Z,7.57
2018-04-22T04:24:47.656Z,6.60
2018-04-22T04:27:37.950Z,6.13
2018-04-22T04:30:06.967Z,6.60
2018-04-22T04:32:35.951Z,7.13
2018-04-22T04:35:05.037Z,7.33
2018-04-22T04:37:34.389Z,5.97
2018-04-22T04:40:04.364Z,5.63
2018-04-22T04:42:33.369Z,5.53
2018-04-22T04:45:02.356Z,5.97
2018-04-22T04:47:31.284Z,5.97
2018-04-22T04:50:00.319Z,5.03
2018-04-22T04:52:35.792Z,6.17
2018-04-22T04:55:04.755Z,5.60
2018-04-22T04:57:40.530Z,3.50
2018-04-22T05:00:10.288Z,6.30
2018-04-22T05:02:39.244Z,3.43
2018-04-22T05:05:08.437Z,3.83
2018-04-22T05:07:37.328Z,2.53
2018-04-22T05:10:07.453Z,3.17
2018-04-22T05:12:36.755Z,2.77
2018-04-22T05:15:05.710Z,3.10
2018-04-22T05:17:34.738Z,2.77
2018-04-22T05:20:03.937Z,2.67
2018-04-22T05:22:32.884Z,2.70
2018-04-22T05:25:02.000Z,2.67
2018-04-22T05:27:31.221Z,3.20
2018-04-22T05:30:00.156Z,2.60
2018-04-22T05:32:29.226Z,2.90
2018-04-22T05:34:58.208Z,2.87
2018-04-22T05:37:27.202Z,3.07
2018-04-22T05:39:56.202Z,2.97
2018-04-22T05:42:25.393Z,3.10
2018-04-22T05:44:55.586Z,3.10
2018-04-22T05:47:24.572Z,2.60
2018-04-22T05:52:27.245Z,2.77
2018-04-22T05:54:56.262Z,3.50
2018-04-22T05:57:28.211Z,3.27
2018-04-22T05:59:57.154Z,3.47
2018-04-22T06:02:26.102Z,2.97
2018-04-22T06:04:55.046Z,3.30
2018-04-22T06:07:23.981Z,3.27
2018-04-22T06:09:52.928Z,3.20
2018-04-22T06:12:22.929Z,2.77
2018-04-22T06:14:52.907Z,3.80
2018-04-22T06:17:22.374Z,3.10
2018-04-22T06:19:51.461Z,2.73
2018-04-22T06:22:20.464Z,3.50
2018-04-22T06:24:50.176Z,3.37
2018-04-22T06:27:19.164Z,2.93
2018-04-22T06:29:48.015Z,3.67
2018-04-22T06:32:17.977Z,3.03
2018-04-22T06:37:22.044Z,3.30
2018-04-22T06:39:52.294Z,3.27
2018-04-22T06:42:21.407Z,3.50
2018-04-22T06:44:50.877Z,3.47
2018-04-22T06:47:19.823Z,3.23
2018-04-22T06:49:49.904Z,2.80
2018-04-22T06:52:18.839Z,3.30
2018-04-22T06:54:47.829Z,3.23
2018-04-22T06:57:16.801Z,4.10
2018-04-22T06:59:45.748Z,3.50
2018-04-22T07:02:14.743Z,3.30
2018-04-22T07:04:44.263Z,4.03
2018-04-22T07:07:13.211Z,4.07
2018-04-22T07:09:42.104Z,3.77
2018-04-22T07:12:11.505Z,3.90
2018-04-22T07:14:40.602Z,3.50
2018-04-22T07:17:09.808Z,4.10
2018-04-22T07:19:39.622Z,3.40
2018-04-22T07:22:08.650Z,4.03
2018-04-22T07:24:37.722Z,5.90
2018-04-22T07:27:06.872Z,3.70
2018-04-22T07:29:35.842Z,4.87
2018-04-22T07:32:05.715Z,4.00
2018-04-22T07:34:34.666Z,5.10
2018-04-22T07:37:04.026Z,4.63
2018-04-22T07:39:32.895Z,4.23
2018-04-22T07:42:03.575Z,4.20
2018-04-22T07:44:32.605Z,7.03
2018-04-22T07:47:01.567Z,5.33
2018-04-22T07:49:31.355Z,5.43
2018-04-22T07:52:00.982Z,4.73
2018-04-22T07:54:30.493Z,5.70
2018-04-22T07:57:00.338Z,5.33
2018-04-22T07:59:30.014Z,5.20
2018-04-22T08:02:00.033Z,5.67
2018-04-22T08:04:30.692Z,4.87
2018-04-22T08:07:01.069Z,5.37
2018-04-22T08:09:31.040Z,6.90
2018-04-22T08:12:00.155Z,4.90
2018-04-22T08:14:29.139Z,4.93
2018-04-22T08:16:58.094Z,4.33
2018-04-22T08:19:28.091Z,4.83
2018-04-22T08:21:57.153Z,4.90
2018-04-22T08:24:26.105Z,5.30
2018-04-22T08:26:56.834Z,4.27
2018-04-22T08:29:25.860Z,4.80
2018-04-22T08:31:54.982Z,5.00
2018-04-22T08:34:25.809Z,4.13
2018-04-22T08:36:54.787Z,4.60
2018-04-22T08:39:24.635Z,6.20
2018-04-22T08:44:29.320Z,5.10
2018-04-22T08:46:58.417Z,4.47
2018-04-22T08:49:29.658Z,5.20
2018-04-22T08:51:58.699Z,6.33
2018-04-22T08:54:27.663Z,5.80
2018-04-22T08:56:57.677Z,5.10
2018-04-22T08:59:26.561Z,5.43
2018-04-22T09:01:55.431Z,5.47
2018-04-22T09:04:25.216Z,5.67
2018-04-22T09:06:55.315Z,5.97
2018-04-22T09:09:24.276Z,4.80
2018-04-22T09:11:53.377Z,5.50
2018-04-22T09:14:22.365Z,5.10
2018-04-22T09:16:51.477Z,5.60
2018-04-22T09:19:22.091Z,11.50
2018-04-22T09:21:51.090Z,22.23
2018-04-22T09:24:20.081Z,23.87
2018-04-22T09:26:52.147Z,7.40
2018-04-22T09:29:21.703Z,4.77
2018-04-22T09:31:51.473Z,4.53
2018-04-22T09:34:21.569Z,4.50
2018-04-22T09:36:50.585Z,4.83
2018-04-22T09:39:19.471Z,4.70
2018-04-22T09:41:52.409Z,5.03
2018-04-22T09:44:21.299Z,4.90
2018-04-22T09:46:51.271Z,4.87
2018-04-22T09:49:20.265Z,4.80
2018-04-22T09:51:50.282Z,4.47
2018-04-22T09:54:19.297Z,4.70
2018-04-22T09:56:50.088Z,4.60
2018-04-22T09:59:19.027Z,4.20
2018-04-22T10:01:48.720Z,4.10
2018-04-22T10:04:17.919Z,4.80
2018-04-22T10:06:46.934Z,5.33
2018-04-22T10:09:17.440Z,4.60
2018-04-22T10:11:46.472Z,4.30
2018-04-22T10:14:15.383Z,4.67
2018-04-22T10:16:45.139Z,4.80
2018-04-22T10:19:14.343Z,5.17
2018-04-22T10:21:43.357Z,4.40
2018-04-22T10:24:12.278Z,4.57
2018-04-22T10:26:41.359Z,4.60
2018-04-22T10:29:10.468Z,5.20
2018-04-22T10:31:39.659Z,4.67
2018-04-22T10:34:10.464Z,4.77
2018-04-22T10:36:39.570Z,5.40
2018-04-22T10:39:08.750Z,4.70
2018-04-22T10:41:40.211Z,4.03
2018-04-22T10:44:09.238Z,4.07
2018-04-22T10:46:38.205Z,4.83
2018-04-22T10:49:07.391Z,4.70
2018-04-22T10:51:36.391Z,4.70
2018-04-22T10:54:06.245Z,4.13
2018-04-22T10:56:36.316Z,4.90
2018-04-22T10:59:05.319Z,4.63
2018-04-22T11:01:34.445Z,4.97
2018-04-22T11:04:03.447Z,4.33
2018-04-22T11:06:32.507Z,4.30
2018-04-22T11:09:01.591Z,4.80
2018-04-22T11:11:31.367Z,4.47
2018-04-22T11:14:00.308Z,4.50
2018-04-22T11:16:29.443Z,4.23
2018-04-22T11:18:58.701Z,4.20
2018-04-22T11:21:28.413Z,4.77
2018-04-22T11:23:58.534Z,5.50
2018-04-22T11:29:01.776Z,4.20
2018-04-22T11:31:31.768Z,4.50
2018-04-22T11:34:01.608Z,3.93
2018-04-22T11:36:30.564Z,5.20
2018-04-22T11:38:59.973Z,4.47
2018-04-22T11:44:02.984Z,4.20
2018-04-22T11:46:31.870Z,4.97
2018-04-22T11:49:00.772Z,4.47
2018-04-22T11:51:29.897Z,4.30
2018-04-22T11:53:58.874Z,3.50
2018-04-22T11:56:28.570Z,4.00
2018-04-22T11:58:58.468Z,4.33
2018-04-22T12:01:27.367Z,4.23
2018-04-22T12:03:57.233Z,4.87
2018-04-22T12:06:28.949Z,4.13
2018-04-22T12:08:57.835Z,4.33
2018-04-22T12:11:26.928Z,4.97
2018-04-22T12:13:55.923Z,4.77
2018-04-22T12:16:25.127Z,3.87
2018-04-22T12:18:54.398Z,4.47
2018-04-22T12:21:23.629Z,4.80
2018-04-22T12:23:52.869Z,4.57
2018-04-22T12:26:21.922Z,4.90
2018-04-22T12:28:51.051Z,4.33
2018-04-22T12:31:20.932Z,4.17
2018-04-22T12:33:50.950Z,4.10
2018-04-22T12:36:19.845Z,3.80
2018-04-22T12:38:48.937Z,3.83
2018-04-22T12:41:17.872Z,4.87
2018-04-22T12:43:47.741Z,4.37
2018-04-22T12:46:18.130Z,4.20
2018-04-22T12:48:47.104Z,4.27
2018-04-22T12:51:16.903Z,4.73
2018-04-22T12:53:46.184Z,4.70
2018-04-22T12:56:16.202Z,4.80
2018-04-22T12:58:45.758Z,4.43
2018-04-22T13:01:14.710Z,4.10
2018-04-22T13:03:45.024Z,3.90
2018-04-22T13:06:14.017Z,4.07
2018-04-22T13:08:42.942Z,4.60
2018-04-22T13:11:11.903Z,4.60
2018-04-22T13:13:48.134Z,4.53
2018-04-22T13:16:17.264Z,4.50
2018-04-22T13:18:46.260Z,4.37
2018-04-22T13:23:50.391Z,5.23
2018-04-22T13:26:20.339Z,4.60
2018-04-22T13:28:49.309Z,4.47
2018-04-22T13:31:18.400Z,4.50
2018-04-22T13:33:48.324Z,4.27
2018-04-22T13:36:17.334Z,4.90
2018-04-22T13:38:49.885Z,5.13
2018-04-22T13:41:18.880Z,4.67
2018-04-22T13:43:47.833Z,5.00
2018-04-22T13:46:16.970Z,4.40
2018-04-22T13:48:45.962Z,5.40
2018-04-22T13:51:14.931Z,4.60
2018-04-22T13:53:45.487Z,4.67
2018-04-22T13:56:14.617Z,4.17
2018-04-22T13:58:43.570Z,4.73
2018-04-22T14:01:16.923Z,4.90
2018-04-22T14:03:46.676Z,4.50
2018-04-22T14:06:17.388Z,4.77
2018-04-22T14:08:46.507Z,5.20
2018-04-22T14:11:15.548Z,5.10
2018-04-22T14:13:51.246Z,4.40
2018-04-22T14:16:20.456Z,4.80
2018-04-22T14:18:49.861Z,4.50
2018-04-22T14:21:19.776Z,5.03
2018-04-22T14:23:48.731Z,4.67
2018-04-22T14:26:17.661Z,5.10
2018-04-22T14:28:46.656Z,4.70
2018-04-22T14:31:16.469Z,4.97
2018-04-22T14:33:45.450Z,5.27
2018-04-22T14:36:14.669Z,4.77
2018-04-22T14:38:44.270Z,5.50
2018-04-22T14:41:13.329Z,5.47
2018-04-22T14:43:49.060Z,4.90
2018-04-22T14:46:17.905Z,4.43
2018-04-22T14:49:00.463Z,5.10
2018-04-22T14:51:29.310Z,4.80
2018-04-22T14:53:58.254Z,5.30
2018-04-22T14:56:27.198Z,4.77
2018-04-22T14:58:56.740Z,9.80
2018-04-22T15:01:25.696Z,6.90
2018-04-22T15:03:55.348Z,5.90
2018-04-22T15:06:24.291Z,6.87
2018-04-22T15:08:53.950Z,7.60
2018-04-22T15:11:23.865Z,6.50
2018-04-22T15:13:54.662Z,5.03
2018-04-22T15:16:27.135Z,4.90
2018-04-22T15:18:56.236Z,4.50
2018-04-22T15:21:25.129Z,5.83
2018-04-22T15:23:54.120Z,6.50
2018-04-22T15:26:23.256Z,5.30
2018-04-22T15:28:52.153Z,5.80
2018-04-22T15:31:21.817Z,6.73
2018-04-22T15:33:50.910Z,5.27
2018-04-22T15:36:19.937Z,5.33
2018-04-22T15:38:51.544Z,5.27
2018-04-22T15:41:20.579Z,5.03
2018-04-22T15:43:50.272Z,4.70
2018-04-22T15:46:20.077Z,5.00
2018-04-22T15:48:49.068Z,5.40
2018-04-22T15:51:18.072Z,4.60
2018-04-22T15:53:47.070Z,4.33
2018-04-22T15:56:16.822Z,4.83
2018-04-22T15:58:46.814Z,4.67
2018-04-22T16:01:16.864Z,4.40
2018-04-22T16:03:45.808Z,4.63
2018-04-22T16:06:14.804Z,4.87
2018-04-22T16:08:45.722Z,4.43
2018-04-22T16:11:14.733Z,5.00
2018-04-22T16:13:44.402Z,6.70
2018-04-22T16:16:14.423Z,5.90
2018-04-22T16:18:43.416Z,4.80
2018-04-22T16:21:12.359Z,5.57
2018-04-22T16:23:42.137Z,5.90
2018-04-22T16:26:12.078Z,5.80
2018-04-22T16:28:41.386Z,5.20
2018-04-22T16:31:13.656Z,4.90
2018-04-22T16:33:42.643Z,5.23
2018-04-22T16:36:12.536Z,4.83
2018-04-22T16:38:41.660Z,5.20
2018-04-22T16:41:10.756Z,5.30
2018-04-22T16:43:39.844Z,5.43
2018-04-22T16:46:11.612Z,6.20
2018-04-22T16:48:40.606Z,6.27
2018-04-22T16:51:09.541Z,9.00
2018-04-22T16:53:38.838Z,8.50
2018-04-22T16:56:08.547Z,6.10
2018-04-22T16:58:37.498Z,4.90
2018-04-22T17:01:07.196Z,5.20
2018-04-22T17:03:36.040Z,5.63
2018-04-22T17:06:04.890Z,4.53
2018-04-22T17:08:33.741Z,5.60
2018-04-22T17:11:02.584Z,6.40
2018-04-22T17:13:31.501Z,5.53
2018-04-22T17:16:01.168Z,5.20
2018-04-22T17:18:29.993Z,5.50
2018-04-22T17:20:58.802Z,6.30
2018-04-22T17:23:27.701Z,6.10
2018-04-22T17:25:56.490Z,6.70
2018-04-22T17:28:25.345Z,6.50
2018-04-22T17:30:55.006Z,6.53
2018-04-22T17:33:23.871Z,7.47
2018-04-22T17:35:52.717Z,8.00
2018-04-22T17:38:27.426Z,7.80
2018-04-22T17:40:56.205Z,9.53
2018-04-22T17:43:25.166Z,10.00
2018-04-22T17:45:54.052Z,9.40
2018-04-22T17:48:23.868Z,9.03
2018-04-22T17:50:52.693Z,10.73
2018-04-22T17:53:21.643Z,9.87
2018-04-22T17:55:50.596Z,8.93
2018-04-22T17:58:19.419Z,8.97
2018-04-22T18:00:48.267Z,9.50
2018-04-22T18:03:17.115Z,9.30
2018-04-22T18:05:45.923Z,8.20
2018-04-22T18:08:15.680Z,7.83
2018-04-22T18:10:44.539Z,8.13
2018-04-22T18:13:13.390Z,6.67
2018-04-22T18:15:42.254Z,6.33
2018-04-22T18:18:11.045Z,6.27
2018-04-22T18:20:39.847Z,4.60
2018-04-22T18:23:08.708Z,4.90
2018-04-22T18:25:37.525Z,5.03
2018-04-22T18:28:06.345Z,5.70
2018-04-22T18:30:36.847Z,4.80
2018-04-22T18:33:05.687Z,5.10
2018-04-22T18:35:34.503Z,4.80
2018-04-22T18:38:05.022Z,4.50
2018-04-22T18:40:34.226Z,4.40
2018-04-22T18:43:03.111Z,5.10
2018-04-22T18:45:31.978Z,5.13
2018-04-22T18:48:00.865Z,5.80
2018-04-22T18:50:29.748Z,5.40
2018-04-22T18:52:58.678Z,5.20
2018-04-22T18:55:27.550Z,5.23
2018-04-22T18:57:56.378Z,5.37
2018-04-22T19:02:58.960Z,6.30
2018-04-22T19:05:30.245Z,4.77
2018-04-22T19:10:33.476Z,4.80
2018-04-22T19:13:02.290Z,5.20
2018-04-22T19:15:31.119Z,5.30
2018-04-22T19:18:01.584Z,4.40
2018-04-22T19:20:30.613Z,5.60
2018-04-22T19:23:02.518Z,4.90
2018-04-22T19:25:31.468Z,5.10
2018-04-22T19:28:02.549Z,5.80
2018-04-22T19:30:32.348Z,4.60
2018-04-22T19:33:02.168Z,4.30
2018-04-22T19:35:32.707Z,4.63
2018-04-22T19:38:02.138Z,5.00
2018-04-22T19:40:31.208Z,5.40
2018-04-22T19:43:00.190Z,5.33
2018-04-22T19:45:30.781Z,4.80
2018-04-22T19:48:00.133Z,5.83
2018-04-22T19:50:29.016Z,5.87
2018-04-22T19:52:58.126Z,5.90
2018-04-22T19:55:27.043Z,5.57
2018-04-22T19:57:56.718Z,6.00
2018-04-22T20:00:27.378Z,6.47
2018-04-22T20:02:56.244Z,6.20
2018-04-22T20:05:25.336Z,5.53
2018-04-22T20:07:55.164Z,6.33
2018-04-22T20:10:24.138Z,6.00
2018-04-22T20:12:53.040Z,5.97
2018-04-22T20:15:22.172Z,6.17
2018-04-22T20:17:51.330Z,6.50
2018-04-22T20:20:20.321Z,6.47
2018-04-22T20:22:50.141Z,6.10
2018-04-22T20:25:19.126Z,6.40
2018-04-22T20:27:48.226Z,6.13
2018-04-22T20:32:51.639Z,5.20
2018-04-22T20:35:20.674Z,5.27
2018-04-22T20:40:23.034Z,5.10
2018-04-22T20:42:52.954Z,5.83
2018-04-22T20:45:22.936Z,5.40
2018-04-22T20:47:51.958Z,5.40
2018-04-22T20:50:21.171Z,5.57
2018-04-22T20:52:57.813Z,6.10
2018-04-22T20:55:26.920Z,5.67
2018-04-22T20:57:55.996Z,5.60
2018-04-22T21:00:25.124Z,5.47
2018-04-22T21:02:54.114Z,5.67
2018-04-22T21:05:23.084Z,6.10
2018-04-22T21:07:54.282Z,5.80
2018-04-22T21:10:23.374Z,6.50
2018-04-22T21:12:52.318Z,6.47
2018-04-22T21:15:22.336Z,5.90
2018-04-22T21:17:51.557Z,6.20
2018-04-22T21:20:20.416Z,6.30
2018-04-22T21:22:49.433Z,6.40
2018-04-22T21:25:18.369Z,5.43
2018-04-22T21:27:48.148Z,5.80
2018-04-22T21:30:17.148Z,6.00
2018-04-22T21:32:46.469Z,6.00
2018-04-22T21:35:15.539Z,5.20
2018-04-22T21:37:45.366Z,5.80
2018-04-22T21:40:14.348Z,6.17
2018-04-22T21:42:44.162Z,5.80
2018-04-22T21:45:13.926Z,5.50
2018-04-22T21:47:43.018Z,4.23
2018-04-22T21:50:11.958Z,4.00
2018-04-22T21:52:46.082Z,4.13
2018-04-22T21:55:16.006Z,4.73
2018-04-22T21:57:44.987Z,4.13
2018-04-22T22:00:14.952Z,3.60
2018-04-22T22:02:44.920Z,4.07
2018-04-22T22:05:14.016Z,3.77
2018-04-22T22:07:44.750Z,4.00
2018-04-22T22:10:14.356Z,3.57
2018-04-22T22:12:43.260Z,3.30
2018-04-22T22:15:13.100Z,3.77
2018-04-22T22:17:43.082Z,3.80
2018-04-22T22:20:12.968Z,4.10
2018-04-22T22:22:42.025Z,3.90
2018-04-22T22:25:11.626Z,4.00
2018-04-22T22:27:40.590Z,3.90
2018-04-22T22:30:09.687Z,3.50
2018-04-22T22:32:38.801Z,3.97
2018-04-22T22:35:08.498Z,3.50
2018-04-22T22:37:39.248Z,3.60
2018-04-22T22:40:08.365Z,3.73
2018-04-22T22:42:37.325Z,4.40
2018-04-22T22:45:06.625Z,3.50
2018-04-22T22:47:36.471Z,3.60
2018-04-22T22:50:05.493Z,3.77
2018-04-22T22:52:35.332Z,4.17
2018-04-22T22:55:05.264Z,4.57
2018-04-22T22:57:34.773Z,3.30
2018-04-22T23:00:06.268Z,3.40
2018-04-22T23:02:35.824Z,3.77
2018-04-22T23:05:05.435Z,3.60
2018-04-22T23:07:35.296Z,3.90
2018-04-22T23:10:04.366Z,3.67
2018-04-22T23:12:33.281Z,4.07
2018-04-22T23:15:04.078Z,3.63
2018-04-22T23:17:33.873Z,4.10
2018-04-22T23:20:02.786Z,3.97
2018-04-22T23:22:32.289Z,3.70
2018-04-22T23:25:02.517Z,3.67
2018-04-22T23:27:31.512Z,3.27
2018-04-22T23:30:02.034Z,3.13
2018-04-22T23:32:31.135Z,3.93
2018-04-22T23:35:00.247Z,3.83
2018-04-22T23:37:29.372Z,3.70
2018-04-22T23:39:58.311Z,3.57
2018-04-22T23:42:27.184Z,3.40
2018-04-22T23:44:57.102Z,3.30
2018-04-22T23:47:26.116Z,3.60
2018-04-22T23:49:55.047Z,3.03
2018-04-22T23:52:24.827Z,3.43
2018-04-22T23:54:53.815Z,3.47
2018-04-22T23:57:22.724Z,3.50
